KCCY

Northeast Iowa Regional Airport

Charles City, Iowa, USA
METAR KCCY 181515Z AUTO 19008KT 2SM BR OVC004 M03/M03 A2989 RMK AO2
Observed Flight Rules
Dec-18 @ 15:15 UTC (an hour ago) Instrument Flight Rules
Wind Visibility Clouds Conditions
190° at 8 knots 2 miles
  • Overcast at 400' AGL
  • Mist
Temperatures Readings
Current -3°C / 27°F
Dewpoint -3°C / 27°F
Humidity 100%
Altimeter 29.89" Hg
Pressure 1012 hPa
Elevation 343
METAR KCCY 181515Z AUTO 19008KT 2SM BR OVC004 M03/M03 A2989 RMK AO2
Observed Flight Rules
Dec-18 @ 15:15 UTC
(an hour ago)
LIFR
Wind Visibility
190° at 8 knots 2 miles
Clouds
  • Overcast at 400' AGL
Conditions
  • Mist
Temperature Dewpoint
-3°C / 27°F -3°C / 27°F
Humidity Altimeter Pressure
100% 29.89" Hg 1012 hPa